Time;durP1;ratioP1;P1;durP2;ratioP2;P2;SDS_P1;SDS_P2;PMS_P1;PMS_P2;Temp;Humidity;BMP_temperature;BMP_pressure;BME280_temperature;BME280_humidity;BME280_pressure;Samples;Min_cycle;Max_cycle;Signal;HPM_P1;HPM_P2
2023/06/27 00:01:44;;;;;;;4.47;2.35;;;;;;;15.87;77.71;99702.32;1756567;82;21039;-71
2023/06/27 00:04:13;;;;;;;4.90;2.08;;;;;;;15.85;77.77;99703.11;1756455;81;21043;-70
2023/06/27 00:06:42;;;;;;;2.80;2.20;;;;;;;15.83;77.88;99694.23;1756405;82;21030;-69
2023/06/27 00:09:15;;;;;;;5.40;2.55;;;;;;;15.82;78.02;99698.09;1756265;81;21094;-70
2023/06/27 00:11:45;;;;;;;3.37;2.17;;;;;;;15.79;78.28;99695.28;1756187;82;21046;-71
2023/06/27 00:14:14;;;;;;;2.58;2.02;;;;;;;15.78;78.34;99690.00;1756458;81;21099;-68
2023/06/27 00:16:44;;;;;;;2.72;2.20;;;;;;;15.78;78.36;99694.98;1756453;82;21030;-70
2023/06/27 00:19:12;;;;;;;3.60;2.25;;;;;;;15.76;78.43;99692.18;1756765;81;21062;-69
2023/06/27 00:21:42;;;;;;;3.52;2.10;;;;;;;15.73;78.39;99699.03;1756702;82;21094;-70
2023/06/27 00:24:11;;;;;;;2.85;2.20;;;;;;;15.69;78.51;99690.12;1756319;81;21030;-70
2023/06/27 00:26:39;;;;;;;3.33;2.10;;;;;;;15.65;78.63;99693.08;1756365;82;21104;-70
2023/06/27 00:29:08;;;;;;;3.30;2.47;;;;;;;15.62;78.66;99692.20;1756519;82;21031;-70
2023/06/27 00:31:36;;;;;;;3.52;2.30;;;;;;;15.57;78.79;99685.13;1756629;82;21065;-70
2023/06/27 00:34:07;;;;;;;3.17;2.20;;;;;;;15.52;78.78;99685.88;1756513;82;21038;-71
2023/06/27 00:36:35;;;;;;;2.47;2.00;;;;;;;15.48;78.85;99697.13;1756413;82;21074;-69
2023/06/27 00:39:04;;;;;;;4.37;2.05;;;;;;;15.44;78.83;99688.50;1756576;82;21082;-69
2023/06/27 00:41:36;;;;;;;5.42;2.08;;;;;;;15.41;78.80;99695.89;1756570;82;21058;-68
2023/06/27 00:44:08;;;;;;;4.05;2.50;;;;;;;15.42;78.83;99695.34;1756431;82;21062;-68
2023/06/27 00:46:41;;;;;;;3.47;2.20;;;;;;;15.41;78.72;99694.51;1756281;81;21054;-70
2023/06/27 00:49:10;;;;;;;3.60;2.50;;;;;;;15.36;78.69;99690.27;1756406;82;21035;-68
2023/06/27 00:51:40;;;;;;;3.05;2.27;;;;;;;15.34;78.74;99688.84;1756467;82;21069;-71
2023/06/27 00:54:09;;;;;;;3.90;2.20;;;;;;;15.28;78.75;99689.28;1756633;82;21034;-68
2023/06/27 00:56:38;;;;;;;3.17;2.40;;;;;;;15.23;78.89;99687.27;1756566;82;21102;-71
2023/06/27 00:59:06;;;;;;;4.12;2.62;;;;;;;15.21;78.92;99692.19;1756436;82;21470;-70
2023/06/27 01:01:35;;;;;;;6.03;2.60;;;;;;;15.18;78.95;99689.92;1756393;82;21184;-70
2023/06/27 01:04:04;;;;;;;2.95;2.22;;;;;;;15.17;79.13;99691.55;1756478;82;21057;-70
2023/06/27 01:06:56;;;;;;;3.77;2.33;;;;;;;15.17;79.29;99697.06;1756739;82;21550;-71
2023/06/27 01:09:41;;;;;;;3.40;2.47;;;;;;;15.16;79.37;99695.38;1756693;81;21062;-71
2023/06/27 01:12:31;;;;;;;4.30;2.80;;;;;;;15.12;79.51;99690.90;1754596;82;21026;-70
2023/06/27 01:14:59;;;;;;;5.22;2.70;;;;;;;15.09;79.60;99688.63;1756317;81;21062;-70
2023/06/27 01:17:32;;;;;;;3.50;2.52;;;;;;;15.04;79.81;99688.52;1756614;82;21023;-71
2023/06/27 01:20:00;;;;;;;7.00;2.87;;;;;;;14.99;80.01;99691.72;1756500;82;21069;-69
2023/06/27 01:22:36;;;;;;;3.33;2.70;;;;;;;14.97;80.24;99696.10;1756607;81;21055;-70
2023/06/27 01:25:07;;;;;;;4.30;2.87;;;;;;;14.94;80.21;99697.09;1756713;81;21195;-72
2023/06/27 01:27:37;;;;;;;3.65;2.83;;;;;;;14.89;80.40;99700.59;1756745;82;21063;-69
2023/06/27 01:30:08;;;;;;;3.10;2.62;;;;;;;14.86;80.57;99700.53;1756611;82;21054;-70
2023/06/27 01:33:05;;;;;;;3.70;2.67;;;;;;;14.84;80.87;99710.13;1756429;82;21474;-70
2023/06/27 01:36:08;;;;;;;4.22;2.80;;;;;;;14.83;80.89;99710.67;1755074;82;21059;-68
2023/06/27 01:38:51;;;;;;;4.20;2.90;;;;;;;14.79;81.06;99710.02;1756908;82;21116;-68
2023/06/27 01:41:20;;;;;;;4.15;2.80;;;;;;;14.79;81.27;99705.88;1755738;82;21478;-70
2023/06/27 01:43:49;;;;;;;3.85;2.77;;;;;;;14.77;81.41;99704.74;1756505;82;21011;-70
2023/06/27 01:46:17;;;;;;;4.70;3.05;;;;;;;14.77;81.50;99718.53;1756440;81;21030;-71
2023/06/27 01:48:47;;;;;;;8.25;2.95;;;;;;;14.77;81.59;99719.08;1756710;81;21026;-70
2023/06/27 01:51:16;;;;;;;5.47;2.80;;;;;;;14.76;81.70;99715.48;1756594;82;21062;-69
2023/06/27 01:53:44;;;;;;;4.62;2.87;;;;;;;14.73;81.72;99716.50;1756514;82;20999;-70
2023/06/27 01:56:14;;;;;;;4.80;2.65;;;;;;;14.71;81.92;99711.77;1756412;82;21010;-67
2023/06/27 01:58:42;;;;;;;3.02;2.50;;;;;;;14.70;82.08;99715.06;1756441;82;21034;-69
2023/06/27 02:01:10;;;;;;;3.25;2.72;;;;;;;14.68;82.06;99717.22;1756429;81;21039;-70
2023/06/27 02:03:39;;;;;;;3.20;2.77;;;;;;;14.66;82.12;99715.79;1756324;82;21107;-72
2023/06/27 02:06:08;;;;;;;2.92;2.40;;;;;;;14.64;82.20;99712.44;1756570;82;21144;-69
2023/06/27 02:08:36;;;;;;;6.80;3.30;;;;;;;14.60;82.32;99712.08;1756585;82;21059;-69
2023/06/27 02:11:05;;;;;;;4.17;3.20;;;;;;;14.57;82.56;99713.94;1756563;82;21462;-68
2023/06/27 02:13:37;;;;;;;3.40;2.80;;;;;;;14.57;82.68;99711.18;1756535;82;21126;-70
2023/06/27 02:16:05;;;;;;;4.33;3.10;;;;;;;14.57;82.76;99712.56;1756339;81;21066;-70
2023/06/27 02:18:33;;;;;;;3.58;2.90;;;;;;;14.59;82.86;99708.48;1756637;82;21046;-70
2023/06/27 02:21:02;;;;;;;2.98;2.67;;;;;;;14.59;82.82;99710.40;1756450;81;21069;-71
2023/06/27 02:23:31;;;;;;;4.83;2.87;;;;;;;14.58;82.89;99713.70;1756237;81;21062;-70
2023/06/27 02:26:00;;;;;;;4.78;3.15;;;;;;;14.61;82.99;99704.11;1756385;81;21113;-70
2023/06/27 02:28:30;;;;;;;4.53;2.80;;;;;;;14.65;83.05;99696.19;1756333;82;21034;-70
2023/06/27 02:30:59;;;;;;;4.22;3.05;;;;;;;14.67;82.93;99708.66;1756396;82;21011;-70
2023/06/27 02:33:29;;;;;;;4.72;3.27;;;;;;;14.66;82.80;99704.22;1724150;82;21478;-70
2023/06/27 02:35:59;;;;;;;3.72;3.10;;;;;;;14.67;82.90;99697.63;1756069;82;21552;-69
2023/06/27 02:38:30;;;;;;;5.62;3.08;;;;;;;14.70;82.99;99687.49;1756551;82;21500;-70
2023/06/27 02:40:58;;;;;;;4.35;3.08;;;;;;;14.71;82.78;99692.47;1756426;82;21022;-70
2023/06/27 02:43:27;;;;;;;3.87;2.92;;;;;;;14.69;82.70;99689.95;1756433;82;21062;-69
2023/06/27 02:45:58;;;;;;;3.45;2.95;;;;;;;14.71;82.78;99686.41;1756397;82;21031;-69
2023/06/27 02:48:27;;;;;;;4.25;2.98;;;;;;;14.73;82.80;99681.49;1756347;82;21035;-70
2023/06/27 02:50:56;;;;;;;3.75;2.87;;;;;;;14.75;82.75;99679.33;1756505;82;21019;-69
2023/06/27 02:53:25;;;;;;;5.33;3.20;;;;;;;14.77;82.69;99682.68;1756383;82;21090;-70
2023/06/27 02:55:54;;;;;;;3.67;3.00;;;;;;;14.78;82.64;99678.84;1756304;82;21113;-70
2023/06/27 02:58:23;;;;;;;5.75;3.30;;;;;;;14.80;82.49;99675.84;1756551;82;21445;-69
2023/06/27 03:00:51;;;;;;;5.62;3.20;;;;;;;14.81;82.56;99675.59;1756540;81;21082;-70
2023/06/27 03:03:22;;;;;;;5.85;2.80;;;;;;;14.82;82.52;99667.63;1756377;82;21018;-70
2023/06/27 03:05:51;;;;;;;4.58;2.83;;;;;;;14.86;82.40;99672.95;1756515;82;21035;-70
2023/06/27 03:08:21;;;;;;;5.00;2.90;;;;;;;14.88;82.18;99673.55;1724197;82;21027;-70
2023/06/27 03:10:51;;;;;;;5.80;3.02;;;;;;;14.91;81.92;99677.20;1756452;82;21047;-69
2023/06/27 03:13:22;;;;;;;8.03;2.80;;;;;;;14.94;81.84;99673.66;1756541;82;21023;-71
2023/06/27 03:15:52;;;;;;;4.28;2.90;;;;;;;14.94;81.54;99668.97;1756460;81;21079;-70
2023/06/27 03:18:21;;;;;;;3.95;2.87;;;;;;;14.93;81.49;99675.57;1756371;82;20995;-70
2023/06/27 03:20:50;;;;;;;4.97;3.08;;;;;;;14.97;81.53;99673.20;1756583;81;21105;-70
2023/06/27 03:23:19;;;;;;;4.20;2.80;;;;;;;15.03;81.40;99673.59;1756564;81;21034;-69
2023/06/27 03:25:48;;;;;;;4.78;3.08;;;;;;;15.05;81.10;99674.19;1756495;82;21043;-71
2023/06/27 03:28:19;;;;;;;4.35;3.20;;;;;;;15.08;80.96;99670.94;1756589;82;21054;-70
2023/06/27 03:30:49;;;;;;;5.95;2.85;;;;;;;15.11;80.86;99675.97;1757830;82;21042;-69
2023/06/27 03:33:19;;;;;;;4.50;3.00;;;;;;;15.16;80.70;99673.31;1759532;81;21038;-69
2023/06/27 03:35:49;;;;;;;4.10;2.90;;;;;;;15.20;80.45;99681.39;1759550;82;21046;-68
2023/06/27 03:38:18;;;;;;;4.00;2.80;;;;;;;15.19;80.15;99681.09;1758209;82;21038;-70
2023/06/27 03:40:47;;;;;;;7.05;2.67;;;;;;;15.20;80.11;99678.63;1756673;82;20999;-70
2023/06/27 03:43:16;;;;;;;3.72;2.67;;;;;;;15.20;79.96;99675.33;1756814;82;21062;-70
2023/06/27 03:45:46;;;;;;;3.67;2.90;;;;;;;15.19;79.87;99681.94;1756317;82;21218;-71
2023/06/27 03:48:14;;;;;;;3.98;3.22;;;;;;;15.22;80.03;99680.61;1756227;82;21458;-69
2023/06/27 03:50:43;;;;;;;3.52;2.85;;;;;;;15.26;79.72;99670.75;1756531;82;21022;-69
2023/06/27 03:53:12;;;;;;;4.40;2.70;;;;;;;15.29;79.44;99674.94;1756298;82;21098;-68
2023/06/27 03:55:41;;;;;;;5.37;3.33;;;;;;;15.29;79.38;99661.98;1756414;82;21062;-69
2023/06/27 03:58:12;;;;;;;5.65;3.08;;;;;;;15.35;79.40;99665.67;1724096;82;21439;-70
2023/06/27 04:00:43;;;;;;;3.42;2.70;;;;;;;15.41;79.20;99661.38;1756410;82;21042;-70
2023/06/27 04:03:11;;;;;;;3.75;2.55;;;;;;;15.45;78.78;99663.94;1756465;82;21018;-68
2023/06/27 04:05:40;;;;;;;2.52;2.22;;;;;;;15.47;78.27;99663.16;1756347;82;21042;-69
2023/06/27 04:08:11;;;;;;;4.30;2.70;;;;;;;15.51;77.75;99660.19;1728928;82;21026;-69
2023/06/27 04:10:42;;;;;;;3.58;2.50;;;;;;;15.52;77.03;99649.44;1756746;82;21094;-70
2023/06/27 04:13:10;;;;;;;4.67;2.75;;;;;;;15.53;76.74;99645.59;1756306;82;21550;-71
2023/06/27 04:15:39;;;;;;;5.00;2.95;;;;;;;15.54;76.67;99638.98;1756136;81;21038;-70
2023/06/27 04:18:13;;;;;;;8.05;2.90;;;;;;;15.57;76.88;99643.17;1756229;81;21042;-70
2023/06/27 04:20:41;;;;;;;4.33;2.70;;;;;;;15.63;76.85;99639.48;1756440;82;21086;-71
2023/06/27 04:23:10;;;;;;;3.27;2.60;;;;;;;15.63;77.04;99637.26;1756129;82;21074;-71
2023/06/27 04:25:40;;;;;;;3.20;2.80;;;;;;;15.67;77.36;99639.27;1756281;82;21470;-69
2023/06/27 04:28:09;;;;;;;3.75;2.80;;;;;;;15.72;77.42;99638.52;1682888;82;21038;-70
2023/06/27 04:30:39;;;;;;;3.87;2.92;;;;;;;15.75;77.59;99631.12;1756503;82;21165;-70
2023/06/27 04:33:08;;;;;;;5.08;3.10;;;;;;;15.79;77.67;99637.81;1756434;82;21039;-70
2023/06/27 04:35:38;;;;;;;3.67;2.85;;;;;;;15.80;77.78;99639.49;1756247;82;21078;-67
2023/06/27 04:38:08;;;;;;;4.15;2.95;;;;;;;15.87;78.02;99634.64;1756299;82;21062;-70
2023/06/27 04:40:39;;;;;;;4.15;3.02;;;;;;;15.92;78.00;99628.36;1756491;82;21058;-70
2023/06/27 04:43:08;;;;;;;4.28;3.30;;;;;;;15.97;77.63;99632.58;1756349;82;21042;-71
2023/06/27 04:45:36;;;;;;;4.00;3.22;;;;;;;15.99;77.54;99636.77;1756349;82;21042;-71
2023/06/27 04:48:07;;;;;;;5.47;2.87;;;;;;;16.03;77.47;99636.56;1756193;82;21039;-70
2023/06/27 04:50:35;;;;;;;3.95;3.02;;;;;;;16.06;77.66;99637.44;1756500;82;21003;-69
2023/06/27 04:53:04;;;;;;;5.15;3.30;;;;;;;16.10;77.43;99633.63;1756137;82;21011;-68
2023/06/27 04:55:34;;;;;;;4.05;3.20;;;;;;;16.14;77.30;99631.48;1756329;82;22000;-69
2023/06/27 04:58:03;;;;;;;3.50;2.90;;;;;;;16.28;77.12;99622.87;1756475;82;21039;-70
2023/06/27 05:00:32;;;;;;;4.12;2.80;;;;;;;16.44;76.30;99631.67;1756478;82;21014;-70
2023/06/27 05:03:01;;;;;;;4.55;3.15;;;;;;;16.58;75.30;99622.46;1756425;82;21540;-69
2023/06/27 05:05:34;;;;;;;6.08;2.92;;;;;;;16.75;74.89;99626.87;1756615;81;21062;-70
2023/06/27 05:08:04;;;;;;;4.83;3.12;;;;;;;16.97;73.82;99627.45;1756393;82;21026;-70
2023/06/27 05:10:33;;;;;;;4.87;3.27;;;;;;;17.25;72.98;99627.77;1756319;82;21482;-69
2023/06/27 05:13:02;;;;;;;5.10;3.30;;;;;;;17.56;72.54;99629.78;1756462;82;21090;-69
2023/06/27 05:15:31;;;;;;;6.33;3.40;;;;;;;17.88;71.02;99634.53;1756387;82;21050;-70
2023/06/27 05:18:12;;;;;;;2.98;2.67;;;;;;;18.11;68.99;99633.32;1756451;82;21117;-67
2023/06/27 05:20:41;;;;;;;3.87;3.05;;;;;;;18.34;68.13;99638.51;1746634;82;21011;-69
2023/06/27 05:23:11;;;;;;;3.60;2.87;;;;;;;18.55;66.62;99636.14;1756532;82;21002;-68
2023/06/27 05:25:40;;;;;;;5.03;3.77;;;;;;;18.79;65.53;99633.80;1756283;82;21082;-70
2023/06/27 05:28:10;;;;;;;7.60;3.50;;;;;;;18.99;64.19;99629.75;1756378;82;21050;-69
2023/06/27 05:30:39;;;;;;;6.80;3.37;;;;;;;19.09;63.96;99624.79;1756603;82;21026;-68
2023/06/27 05:33:09;;;;;;;7.35;3.00;;;;;;;19.26;63.27;99624.01;1756423;82;21528;-68
2023/06/27 05:35:38;;;;;;;4.45;3.30;;;;;;;19.43;62.58;99634.87;1756550;82;21062;-70
2023/06/27 05:38:07;;;;;;;4.85;3.00;;;;;;;19.64;61.12;99628.86;1756450;82;21002;-68
2023/06/27 05:40:37;;;;;;;5.47;3.00;;;;;;;19.87;59.78;99632.49;1756567;81;21113;-69
2023/06/27 05:43:08;;;;;;;6.60;3.30;;;;;;;19.99;59.35;99618.87;1756564;82;21098;-69
2023/06/27 05:45:38;;;;;;;3.60;2.77;;;;;;;20.10;59.48;99616.36;1756462;81;21055;-68
2023/06/27 05:48:08;;;;;;;9.40;3.17;;;;;;;20.36;59.47;99620.80;1756400;82;21027;-69
2023/06/27 05:50:37;;;;;;;6.15;3.30;;;;;;;20.56;58.47;99624.95;1756407;81;21050;-69
2023/06/27 05:53:06;;;;;;;4.50;3.15;;;;;;;20.65;57.38;99619.64;1729486;82;21046;-68
2023/06/27 05:55:36;;;;;;;5.12;3.20;;;;;;;20.74;57.01;99628.25;1756355;82;21126;-68
2023/06/27 05:58:04;;;;;;;5.22;2.72;;;;;;;20.82;56.32;99627.69;1756362;82;21081;-68
2023/06/27 06:00:33;;;;;;;3.70;2.70;;;;;;;20.92;56.16;99621.25;1756370;82;21078;-69
2023/06/27 06:03:04;;;;;;;4.50;2.72;;;;;;;21.07;55.61;99617.84;1756428;82;21442;-69
2023/06/27 06:05:33;;;;;;;4.87;2.90;;;;;;;21.21;54.62;99610.52;1756759;82;21015;-69
2023/06/27 06:08:02;;;;;;;2.75;2.40;;;;;;;21.37;53.26;99619.66;1756325;82;21050;-70
2023/06/27 06:10:31;;;;;;;11.63;3.25;;;;;;;21.53;52.10;99620.42;1756454;82;21022;-70
2023/06/27 06:13:00;;;;;;;4.35;2.62;;;;;;;21.71;51.61;99624.48;1756486;82;21057;-69
2023/06/27 06:15:29;;;;;;;3.30;2.30;;;;;;;21.89;50.90;99626.56;1756312;82;21058;-70
2023/06/27 06:17:58;;;;;;;5.37;3.33;;;;;;;22.05;50.29;99618.94;1756105;82;21126;-69
2023/06/27 06:20:26;;;;;;;4.50;2.62;;;;;;;22.21;49.09;99617.70;1756406;82;21074;-70
2023/06/27 06:22:59;;;;;;;2.83;2.45;;;;;;;22.28;49.44;99622.38;1756287;82;21043;-71
2023/06/27 06:25:28;;;;;;;3.72;2.40;;;;;;;22.38;48.89;99626.45;1756422;82;21496;-70
2023/06/27 06:27:57;;;;;;;3.95;2.17;;;;;;;22.50;48.02;99625.23;1756266;82;21034;-69
2023/06/27 06:30:25;;;;;;;4.58;2.40;;;;;;;22.48;47.64;99626.08;1756308;82;21023;-71
2023/06/27 06:32:54;;;;;;;2.65;2.25;;;;;;;22.41;47.05;99618.06;1756404;81;21062;-70
2023/06/27 06:35:23;;;;;;;5.90;2.30;;;;;;;22.36;47.40;99617.55;1756529;81;21034;-69
2023/06/27 06:37:52;;;;;;;6.42;2.60;;;;;;;22.46;47.72;99612.42;1756272;82;20991;-69
2023/06/27 06:40:21;;;;;;;3.40;2.37;;;;;;;22.59;47.05;99608.09;1756367;82;21066;-69
2023/06/27 06:42:51;;;;;;;4.20;2.67;;;;;;;22.71;47.29;99605.72;1729921;82;21062;-69
2023/06/27 06:45:20;;;;;;;3.90;2.72;;;;;;;22.87;47.09;99605.03;1756509;82;21101;-68
2023/06/27 06:47:49;;;;;;;4.20;2.40;;;;;;;22.97;46.89;99597.35;1756237;82;21459;-68
2023/06/27 06:50:18;;;;;;;4.78;2.55;;;;;;;23.05;46.45;99607.87;1756647;81;21041;-71
2023/06/27 06:52:46;;;;;;;6.58;2.47;;;;;;;23.09;46.53;99602.51;1756418;82;21090;-72
2023/06/27 06:55:15;;;;;;;3.85;2.35;;;;;;;23.16;45.78;99606.33;1756492;82;21062;-69
2023/06/27 06:57:46;;;;;;;3.35;2.50;;;;;;;23.37;45.60;99607.70;1756533;82;21023;-71
2023/06/27 07:00:17;;;;;;;5.03;2.80;;;;;;;23.66;44.81;99604.25;1756324;82;21454;-69
2023/06/27 07:02:46;;;;;;;7.17;2.80;;;;;;;23.80;44.36;99615.50;1756589;82;21066;-69
2023/06/27 07:05:16;;;;;;;5.47;2.45;;;;;;;23.93;43.24;99611.09;1757547;81;21038;-70
2023/06/27 07:07:45;;;;;;;5.17;2.12;;;;;;;24.02;42.40;99602.27;1758891;82;20991;-69
2023/06/27 07:10:13;;;;;;;10.08;4.10;;;;;;;24.00;42.42;99608.73;1758962;82;21039;-69
2023/06/27 07:12:42;;;;;;;3.92;2.33;;;;;;;24.03;42.24;99614.55;1758597;82;21038;-69
2023/06/27 07:15:14;;;;;;;3.83;2.20;;;;;;;24.09;41.90;99606.93;1756711;82;21034;-69
2023/06/27 07:17:43;;;;;;;3.77;2.50;;;;;;;24.12;41.64;99602.69;1756262;82;21129;-69
2023/06/27 07:20:12;;;;;;;5.37;2.10;;;;;;;24.24;41.13;99596.03;1756590;82;21023;-69
2023/06/27 07:22:41;;;;;;;4.28;3.00;;;;;;;24.38;41.00;99596.09;1756336;82;21077;-70
2023/06/27 07:25:11;;;;;;;3.70;2.35;;;;;;;24.50;40.72;99593.05;1756379;82;21122;-68
2023/06/27 07:27:39;;;;;;;5.35;2.30;;;;;;;24.60;40.42;99585.01;1756502;81;21018;-70
2023/06/27 07:30:10;;;;;;;3.17;2.00;;;;;;;24.68;40.75;99574.48;1756373;82;21035;-70
2023/06/27 07:32:39;;;;;;;2.80;2.22;;;;;;;24.84;40.12;99584.27;1753930;81;21070;-69
2023/06/27 07:35:09;;;;;;;4.22;2.62;;;;;;;24.97;39.27;99581.19;1756583;81;21082;-70
2023/06/27 07:37:37;;;;;;;5.03;2.80;;;;;;;24.92;39.74;99579.89;1756603;82;21078;-69
2023/06/27 07:40:08;;;;;;;5.00;2.50;;;;;;;25.04;39.94;99592.01;1756423;82;21564;-69
2023/06/27 07:42:37;;;;;;;2.85;2.00;;;;;;;25.15;39.61;99589.23;1756410;82;21066;-69
2023/06/27 07:45:06;;;;;;;4.35;2.25;;;;;;;25.22;39.00;99586.84;1756617;81;21031;-69
2023/06/27 07:47:35;;;;;;;3.27;2.30;;;;;;;25.19;39.19;99590.27;1756357;82;21054;-70
2023/06/27 07:50:05;;;;;;;10.13;3.80;;;;;;;25.17;39.63;99589.19;1756518;82;21078;-71
2023/06/27 07:52:35;;;;;;;4.85;2.40;;;;;;;25.30;39.52;99601.52;1765904;80;20999;-70
2023/06/27 07:55:08;;;;;;;4.72;2.25;;;;;;;25.33;38.41;99591.65;1745371;82;21120;-70
2023/06/27 07:57:37;;;;;;;5.25;2.37;;;;;;;25.20;38.62;99592.77;1737104;82;21030;-71
2023/06/27 08:00:08;;;;;;;4.50;2.25;;;;;;;25.20;38.67;99587.16;1754231;82;21094;-70
2023/06/27 08:02:44;;;;;;;3.52;2.10;;;;;;;25.16;38.83;99581.92;1748105;82;21047;-67
2023/06/27 08:05:13;;;;;;;5.15;3.80;;;;;;;25.10;38.63;99592.16;1756371;82;21026;-69
2023/06/27 08:07:43;;;;;;;5.67;2.55;;;;;;;25.13;38.96;99583.13;1756090;82;21014;-68
2023/06/27 08:10:12;;;;;;;5.60;2.58;;;;;;;25.20;39.64;99575.94;1755945;82;21006;-68
2023/06/27 08:12:41;;;;;;;6.90;3.85;;;;;;;25.20;39.64;99575.94;1754531;82;21002;-68
2023/06/27 08:15:10;;;;;;;2.70;2.45;;;;;;;25.45;39.30;99581.56;1754439;82;21050;-69
2023/06/27 08:17:39;;;;;;;2.95;2.20;;;;;;;25.56;38.44;99577.38;1754629;82;21035;-67
2023/06/27 08:20:12;;;;;;;3.08;2.50;;;;;;;25.59;38.87;99572.53;1754482;82;21074;-68
2023/06/27 08:22:43;;;;;;;3.37;2.95;;;;;;;25.59;38.37;99573.94;1754738;82;21019;-69
2023/06/27 08:25:12;;;;;;;3.15;2.65;;;;;;;25.39;39.06;99574.42;1754509;82;21039;-68
2023/06/27 08:27:41;;;;;;;6.12;2.60;;;;;;;25.35;39.79;99577.56;1741197;82;21543;-67
2023/06/27 08:30:11;;;;;;;4.42;2.98;;;;;;;25.44;39.57;99579.08;1726141;83;21052;-66
2023/06/27 08:32:42;;;;;;;4.00;2.55;;;;;;;25.57;38.77;99565.58;1726178;83;21172;-68
2023/06/27 08:35:12;;;;;;;3.47;2.62;;;;;;;25.50;39.01;99571.63;1726384;83;21040;-66
2023/06/27 08:37:40;;;;;;;9.78;3.35;;;;;;;25.43;38.84;99577.42;1650220;87;21032;-68
2023/06/27 08:40:10;;;;;;;3.37;2.72;;;;;;;25.43;39.44;99576.84;1650133;87;21064;-67
2023/06/27 08:42:40;;;;;;;3.85;2.70;;;;;;;25.46;39.04;99579.02;1650451;87;21068;-67
2023/06/27 08:45:10;;;;;;;4.55;2.60;;;;;;;25.23;39.60;99567.47;1650544;87;21508;-67
2023/06/27 08:47:41;;;;;;;2.75;2.50;;;;;;;25.18;40.30;99574.59;1650459;87;21051;-69
2023/06/27 08:50:13;;;;;;;4.42;2.70;;;;;;;25.29;39.94;99567.04;1650362;87;21048;-69
2023/06/27 08:52:48;;;;;;;5.15;2.67;;;;;;;25.33;39.60;99561.63;1650355;87;21156;-69
2023/06/27 08:55:24;;;;;;;3.35;2.50;;;;;;;25.27;39.50;99558.11;1670868;83;21064;-67
2023/06/27 08:57:53;;;;;;;2.80;2.30;;;;;;;25.19;39.96;99552.42;1726450;82;21440;-68
2023/06/27 09:00:24;;;;;;;5.20;3.77;;;;;;;25.24;39.65;99556.52;1726228;83;21541;-67
2023/06/27 09:02:53;;;;;;;4.45;3.00;;;;;;;25.32;39.73;99543.72;1752031;82;21035;-65
2023/06/27 09:05:22;;;;;;;2.77;2.40;;;;;;;25.31;40.01;99551.87;1754718;82;21463;-66
2023/06/27 09:07:52;;;;;;;6.22;2.80;;;;;;;25.25;39.72;99549.19;1754696;82;21853;-65
2023/06/27 09:10:20;;;;;;;4.72;3.20;;;;;;;25.24;39.44;99553.13;1754609;82;21531;-66
2023/06/27 09:12:50;;;;;;;3.83;2.50;;;;;;;25.23;39.20;99552.05;1754677;82;21524;-63
2023/06/27 09:15:19;;;;;;;3.52;2.75;;;;;;;25.22;39.66;99551.80;1754789;82;21478;-66
2023/06/27 09:17:49;;;;;;;3.47;2.45;;;;;;;25.21;39.91;99549.56;1754498;81;21098;-66
2023/06/27 09:20:18;;;;;;;2.60;2.20;;;;;;;25.14;39.70;99539.92;1754612;82;21103;-64
2023/06/27 09:22:47;;;;;;;3.62;2.72;;;;;;;25.08;40.06;99534.17;1727833;82;21046;-65
2023/06/27 09:25:19;;;;;;;5.30;2.80;;;;;;;25.11;40.69;99548.96;1754702;82;21015;-64
2023/06/27 09:27:48;;;;;;;3.58;2.60;;;;;;;25.10;41.10;99539.72;1754719;82;21623;-67
2023/06/27 09:30:18;;;;;;;3.15;2.80;;;;;;;24.98;41.97;99542.24;1754478;82;21070;-65
2023/06/27 09:32:59;;;;;;;5.40;2.87;;;;;;;24.89;43.37;99540.72;1754735;82;21051;-66
2023/06/27 09:35:31;;;;;;;3.60;2.50;;;;;;;24.84;44.23;99547.00;1754490;82;21058;-68
2023/06/27 09:38:10;;;;;;;3.80;2.83;;;;;;;24.70;44.69;99545.58;1724845;82;21114;-67
2023/06/27 09:40:42;;;;;;;3.15;2.52;;;;;;;24.65;43.79;99542.31;1754627;82;21623;-65
2023/06/27 09:43:13;;;;;;;3.80;2.60;;;;;;;24.68;43.13;99547.03;1727606;82;21038;-65
2023/06/27 09:45:41;;;;;;;5.00;2.85;;;;;;;24.66;42.83;99544.55;1754489;82;21034;-65
2023/06/27 09:48:10;;;;;;;4.65;2.55;;;;;;;24.66;43.33;99542.58;1754449;82;21524;-66
2023/06/27 09:50:40;;;;;;;3.58;2.70;;;;;;;24.69;44.37;99541.13;1754768;82;21074;-67
2023/06/27 09:53:09;;;;;;;3.87;3.20;;;;;;;24.73;44.29;99545.56;1741999;82;21023;-66
2023/06/27 09:55:38;;;;;;;5.70;2.90;;;;;;;24.74;44.62;99547.22;1664524;86;21122;-65
2023/06/27 09:58:07;;;;;;;4.22;2.70;;;;;;;24.74;44.58;99547.22;1664576;86;21145;-65
2023/06/27 10:00:36;;;;;;;10.35;4.03;;;;;;;24.69;43.80;99552.33;1664718;86;21177;-65
2023/06/27 10:03:08;;;;;;;4.87;2.50;;;;;;;24.66;43.84;99547.34;1615026;85;21150;-62
2023/06/27 10:05:36;;;;;;;2.90;2.55;;;;;;;24.63;44.99;99550.20;1686953;85;21092;-63
2023/06/27 10:08:09;;;;;;;3.10;2.80;;;;;;;24.60;45.57;99559.80;1686172;85;21103;-63
2023/06/27 10:10:38;;;;;;;3.12;2.60;;;;;;;24.41;45.77;99557.66;1686962;85;21112;-64
2023/06/27 10:13:06;;;;;;;4.12;2.85;;;;;;;24.22;46.15;99552.95;1687064;85;21080;-65
2023/06/27 10:15:37;;;;;;;3.85;2.65;;;;;;;24.07;46.65;99544.83;1636830;85;21107;-65
2023/06/27 10:18:07;;;;;;;5.05;2.80;;;;;;;23.93;47.17;99548.14;1686810;85;21165;-64
2023/06/27 10:20:38;;;;;;;3.58;2.75;;;;;;;23.85;47.80;99546.04;1726769;82;21521;-63
2023/06/27 10:23:07;;;;;;;3.22;2.80;;;;;;;23.79;47.86;99545.30;1721490;82;21487;-65
2023/06/27 10:25:38;;;;;;;3.75;3.27;;;;;;;23.70;48.19;99540.14;1746912;82;21027;-65
2023/06/27 10:28:13;;;;;;;3.35;2.98;;;;;;;23.61;48.25;99551.19;1747999;82;21039;-65
2023/06/27 10:30:44;;;;;;;3.25;2.70;;;;;;;23.56;48.53;99551.84;1748368;82;21086;-64
2023/06/27 10:33:31;;;;;;;3.92;3.08;;;;;;;23.50;48.73;99548.27;1748676;82;21030;-64
2023/06/27 10:36:05;;;;;;;3.00;2.62;;;;;;;23.49;48.92;99542.41;1724405;82;21118;-67
2023/06/27 10:38:40;;;;;;;4.33;2.92;;;;;;;23.48;48.98;99538.52;1746506;82;21055;-65
2023/06/27 10:41:14;;;;;;;3.58;2.87;;;;;;;23.46;48.84;99541.62;1746388;82;21458;-65
2023/06/27 10:43:49;;;;;;;3.60;2.98;;;;;;;23.39;49.00;99534.98;1734688;82;21098;-64
2023/06/27 10:46:29;;;;;;;6.28;3.02;;;;;;;23.33;48.88;99538.98;1746382;82;21546;-63
2023/06/27 10:49:04;;;;;;;4.72;3.17;;;;;;;23.32;48.57;99537.33;1746556;82;20999;-65
2023/06/27 10:51:42;;;;;;;4.78;2.58;;;;;;;23.26;48.56;99542.73;1746511;82;21029;-64
2023/06/27 10:54:12;;;;;;;5.12;3.20;;;;;;;23.19;48.79;99541.45;1746527;82;21116;-66
2023/06/27 10:56:46;;;;;;;3.42;2.80;;;;;;;23.18;48.67;99535.59;1746348;82;21491;-66
2023/06/27 10:59:17;;;;;;;3.33;2.70;;;;;;;23.20;48.61;99544.51;1746624;82;21049;-65
2023/06/27 11:02:04;;;;;;;7.17;3.47;;;;;;;23.16;48.72;99532.27;1750599;82;21547;-66
2023/06/27 11:04:43;;;;;;;3.25;2.95;;;;;;;23.14;48.68;99533.14;1756502;82;21034;-65
2023/06/27 11:07:17;;;;;;;3.80;3.10;;;;;;;23.15;48.80;99548.77;1756505;82;21072;-64
2023/06/27 11:09:53;;;;;;;3.37;3.08;;;;;;;23.16;48.73;99528.08;1756293;82;21110;-66
2023/06/27 11:12:22;;;;;;;4.78;3.00;;;;;;;23.08;48.49;99525.39;1756583;82;21552;-65
2023/06/27 11:14:54;;;;;;;4.80;2.67;;;;;;;23.03;49.27;99531.06;1756498;82;21130;-66
2023/06/27 11:17:24;;;;;;;3.58;2.80;;;;;;;23.07;49.16;99524.56;1757516;81;21544;-66
2023/06/27 11:19:52;;;;;;;4.80;2.85;;;;;;;23.19;48.46;99528.30;1759077;80;21249;-65
2023/06/27 11:22:21;;;;;;;4.33;3.10;;;;;;;23.25;48.13;99530.45;1759133;81;21363;-65
2023/06/27 11:24:50;;;;;;;4.15;2.83;;;;;;;23.29;48.18;99537.10;1759490;81;21137;-65
2023/06/27 11:27:19;;;;;;;4.75;2.83;;;;;;;23.30;48.10;99537.37;1759434;81;21094;-65
2023/06/27 11:29:48;;;;;;;5.03;2.75;;;;;;;23.23;47.83;99526.56;1759185;81;21106;-66
2023/06/27 11:32:17;;;;;;;3.05;2.70;;;;;;;23.13;48.89;99532.88;1759054;81;21035;-65
2023/06/27 11:34:46;;;;;;;3.15;2.62;;;;;;;23.16;48.76;99539.26;1759265;81;21030;-65
2023/06/27 11:37:15;;;;;;;16.25;5.28;;;;;;;23.18;48.03;99534.20;1758979;81;21062;-64
2023/06/27 11:39:56;;;;;;;3.83;2.62;;;;;;;23.18;48.45;99527.20;1759231;81;21082;-64
2023/06/27 11:42:36;;;;;;;4.95;2.70;;;;;;;23.13;48.24;99535.67;1759146;81;21294;-66
2023/06/27 11:45:08;;;;;;;3.92;2.58;;;;;;;23.10;48.26;99532.91;1759427;81;21137;-64
2023/06/27 11:47:36;;;;;;;5.47;2.85;;;;;;;23.09;48.68;99529.28;1733041;81;21090;-63
2023/06/27 11:50:11;;;;;;;4.95;2.80;;;;;;;23.11;47.90;99528.98;1746217;81;21022;-65